Lionhead Wind

Located on Lionhead Ridge near West Yellowstone. Use the nearest SNOTEL station for snow depth data: Madison Plateau. The data on this page is also available to view at dataGarrison.com.

Elevation
8775ft
Jump to table bottom
Date Time Temperature
deg F
RH, % Wind Speed Wind Gust Wind Direction
01/28/22 04:08 16.2 39 5 20 NW - 316
01/28/22 03:08 16.2 44 11 26 W - 284
01/28/22 02:08 14.0 37 6 18 NW - 300
01/28/22 01:08 14.6 35 10 22 W - 288
01/28/22 00:08 13.4 35 16 24 W - 274
01/27/22 23:08 14.6 36 17 24 W - 271
01/27/22 22:08 13.8 37 9 24 W - 284
01/27/22 21:08 13.5 48 13 22 W - 279
01/27/22 20:08 9.7 46 10 21 W - 277
01/27/22 19:08 13.0 46 14 21 W - 271
01/27/22 18:08 10.2 41 14 23 W - 261
01/27/22 17:08 14.5 47 12 24 W - 279
01/27/22 16:08 16.2 61 10 26 W - 281
01/27/22 15:08 16.2 64 9 16 W - 268
01/27/22 14:08 16.8 75 4 14 W - 281
01/27/22 13:08 17.1 86 7 13 W - 265
01/27/22 12:08 14.7 89 10 15 SW - 247
01/27/22 11:08 12.6 88 3 10 NW - 319
01/27/22 10:08 13.7 89 7 15 N - 352
01/27/22 09:08 10.2 89 5 17 NW - 320
01/27/22 08:08 7.1 91 8 20 NW - 329
01/27/22 07:08 5.1 91 14 22 N - 345
01/27/22 06:08 5.6 92 15 26 N - 341
01/27/22 05:08 5.8 92 15 27 N - 345
01/27/22 04:08 5.7 92 14 26 N - 350
01/27/22 03:08 6.4 92 12 25 N - 0
01/27/22 02:08 6.8 92 15 30 N - 355
01/27/22 01:08 8.4 92 7 17 NW - 337
01/27/22 00:08 8.8 92 10 17 N - 348
01/26/22 23:08 9.0 92 5 17 N - 347
01/26/22 22:08 8.7 92 4 17 NW - 307
01/26/22 21:08 6.4 91 10 24 W - 260
01/26/22 20:08 3.4 91 13 17 W - 254
01/26/22 19:08 3.9 91 15 22 SW - 247
01/26/22 18:08 4.2 91 18 26 W - 260
01/26/22 17:08 5.6 90 20 28 W - 253
01/26/22 16:08 7.0 90 18 28 W - 256
01/26/22 15:08 9.3 89 15 20 W - 258
01/26/22 14:08 11.3 87 9 18 W - 271
01/26/22 13:08 17.0 87 7 15 W - 288
01/26/22 12:08 10.3 88 16 19 W - 263
01/26/22 11:08 8.2 89 17 24 W - 250
01/26/22 10:08 6.0 89 12 18 W - 263
01/26/22 09:08 5.0 89 7 11 SW - 240
01/26/22 08:08 4.2 89 10 16 W - 250
01/26/22 07:08 3.8 88 17 23 SW - 227
01/26/22 06:08 6.6 72 15 23 SW - 233
01/26/22 05:08 11.8 58 11 20 W - 250
01/26/22 04:08 12.3 64 10 19 W - 264
01/26/22 03:08 11.5 72 14 21 W - 274